createdAt,value
2023-03-06T00:00:10.362Z,1950.00
2023-03-06T00:01:10.386Z,1960.00
2023-03-06T00:02:10.412Z,1955.00
2023-03-06T00:03:10.463Z,1937.00
2023-03-06T00:04:10.635Z,1930.00
2023-03-06T00:05:10.538Z,1920.00
2023-03-06T00:06:10.672Z,1916.00
2023-03-06T00:07:10.611Z,1913.00
2023-03-06T00:08:10.644Z,1920.00
2023-03-06T00:09:10.708Z,1919.00
2023-03-06T00:10:10.750Z,1915.00
2023-03-06T00:11:10.769Z,1892.00
2023-03-06T00:12:10.802Z,1885.00
2023-03-06T00:13:10.843Z,1880.00
2023-03-06T00:14:10.873Z,1883.00
2023-03-06T00:15:10.909Z,1903.00
2023-03-06T00:16:10.974Z,1910.00
2023-03-06T00:17:10.997Z,1901.00
2023-03-06T00:18:11.018Z,1889.00
2023-03-06T00:19:11.055Z,1908.00
2023-03-06T00:20:11.101Z,1898.00
2023-03-06T00:21:11.141Z,1896.00
2023-03-06T00:22:11.157Z,1916.00
2023-03-06T00:23:11.167Z,1893.00
2023-03-06T00:24:11.228Z,1905.00
2023-03-06T00:25:11.234Z,1913.00
2023-03-06T00:26:11.270Z,1904.00
2023-03-06T00:27:11.331Z,1884.00
2023-03-06T00:28:11.371Z,1880.00
2023-03-06T00:29:11.390Z,1873.00
2023-03-06T00:31:11.461Z,1896.00
2023-03-06T00:32:11.542Z,1907.00
2023-03-06T00:34:30.306Z,500.00
2023-03-06T00:35:30.322Z,500.00
2023-03-06T00:36:30.273Z,500.00
2023-03-06T00:37:30.266Z,500.00
2023-03-06T00:38:30.228Z,500.00
2023-03-06T00:39:30.216Z,507.00
2023-03-06T00:40:30.221Z,510.00
2023-03-06T00:41:30.214Z,517.00
2023-03-06T00:42:30.197Z,501.00
2023-03-06T00:43:30.192Z,504.00
2023-03-06T00:44:30.174Z,506.00
2023-03-06T00:45:30.285Z,506.00
2023-03-06T00:46:30.113Z,509.00
2023-03-06T00:47:30.128Z,507.00
2023-03-06T00:48:30.135Z,511.00
2023-03-06T00:49:30.100Z,517.00
2023-03-06T00:50:30.109Z,519.00
2023-03-06T00:51:30.080Z,510.00
2023-03-06T00:52:30.095Z,502.00
2023-03-06T00:53:30.062Z,500.00
2023-03-06T00:54:30.064Z,503.00
2023-03-06T00:55:30.050Z,511.00
2023-03-06T00:56:30.032Z,515.00
2023-03-06T00:57:30.015Z,509.00
2023-03-06T00:58:30.018Z,513.00
2023-03-06T00:59:30.010Z,515.00
2023-03-06T01:00:29.986Z,514.00
2023-03-06T01:01:29.977Z,501.00
2023-03-06T01:02:30.032Z,503.00
2023-03-06T01:03:29.888Z,504.00
2023-03-06T01:04:29.937Z,500.00
2023-03-06T01:05:29.906Z,519.00
2023-03-06T01:06:29.872Z,516.00
2023-03-06T01:07:29.820Z,520.00
2023-03-06T01:08:29.829Z,517.00
2023-03-06T01:16:29.754Z,512.00
2023-03-06T01:17:29.778Z,508.00
2023-03-06T01:18:29.695Z,513.00
2023-03-06T01:19:29.697Z,516.00
2023-03-06T01:20:29.696Z,509.00
2023-03-06T01:21:29.658Z,512.00
2023-03-06T01:22:29.664Z,509.00
2023-03-06T01:23:29.633Z,511.00
2023-03-06T01:24:29.700Z,507.00
2023-03-06T01:25:29.711Z,507.00
2023-03-06T01:26:29.730Z,509.00
2023-03-06T01:27:29.767Z,500.00
2023-03-06T01:28:29.798Z,499.00
2023-03-06T01:29:29.832Z,504.00
2023-03-06T01:42:32.078Z,505.00
2023-03-06T01:49:30.469Z,501.00
2023-03-06T01:51:30.556Z,500.00
2023-03-06T01:54:30.662Z,500.00
2023-03-06T02:15:31.336Z,553.00
2023-03-06T02:16:31.400Z,558.00
2023-03-06T02:24:31.586Z,573.00
2023-03-06T02:25:31.612Z,573.00
2023-03-06T02:26:31.652Z,566.00
2023-03-06T02:27:31.663Z,574.00
2023-03-06T02:28:31.669Z,588.00
2023-03-06T02:29:31.656Z,583.00
2023-03-06T02:30:31.677Z,574.00
2023-03-06T02:31:31.650Z,583.00
2023-03-06T02:32:31.719Z,586.00
2023-03-06T02:33:31.734Z,595.00
2023-03-06T02:34:31.702Z,601.00
2023-03-06T02:35:31.729Z,604.00
2023-03-06T02:36:31.726Z,608.00
2023-03-06T02:37:31.686Z,611.00
2023-03-06T02:38:31.715Z,617.00
2023-03-06T02:39:31.722Z,603.00
2023-03-06T02:40:31.712Z,609.00
2023-03-06T02:41:31.703Z,611.00
2023-03-06T02:42:31.694Z,619.00
2023-03-06T02:43:31.742Z,605.00
2023-03-06T02:44:31.716Z,599.00
2023-03-06T02:45:31.719Z,602.00
2023-03-06T02:46:31.757Z,608.00
2023-03-06T02:47:31.707Z,602.00
2023-03-06T02:48:31.697Z,599.00
2023-03-06T02:49:31.672Z,599.00
2023-03-06T02:50:31.774Z,602.00
2023-03-06T02:51:31.676Z,601.00
2023-03-06T02:52:31.659Z,600.00
2023-03-06T02:53:31.689Z,597.00
2023-03-06T02:54:31.664Z,598.00
2023-03-06T02:55:31.713Z,599.00
2023-03-06T02:56:31.723Z,599.00
2023-03-06T02:57:31.724Z,589.00
2023-03-06T02:58:31.763Z,558.00
2023-03-06T02:59:31.745Z,546.00
2023-03-06T03:00:31.812Z,488.00
2023-03-06T03:01:31.871Z,498.00
2023-03-06T03:02:31.826Z,494.00
2023-03-06T03:03:31.877Z,508.00
2023-03-06T03:04:31.894Z,500.00
2023-03-06T03:05:31.874Z,512.00
2023-03-06T03:06:31.872Z,523.00
2023-03-06T03:07:31.862Z,540.00
2023-03-06T03:08:31.880Z,530.00
2023-03-06T03:09:31.870Z,506.00
2023-03-06T03:10:31.867Z,500.00
2023-03-06T03:11:31.846Z,514.00
2023-03-06T03:12:31.839Z,518.00
2023-03-06T03:13:31.847Z,535.00
2023-03-06T03:14:31.856Z,534.00
2023-03-06T03:15:31.859Z,548.00
2023-03-06T03:16:31.854Z,578.00
2023-03-06T03:17:31.867Z,573.00
2023-03-06T03:18:31.844Z,583.00
2023-03-06T03:19:31.858Z,602.00
2023-03-06T03:20:31.898Z,605.00
2023-03-06T03:21:31.881Z,619.00
2023-03-06T03:22:31.891Z,648.00
2023-03-06T03:23:31.900Z,669.00
2023-03-06T03:24:31.954Z,697.00
2023-03-06T03:25:31.931Z,699.00
2023-03-06T03:26:31.920Z,686.00
2023-03-06T03:27:31.927Z,674.00
2023-03-06T03:28:31.913Z,667.00
2023-03-06T03:29:31.902Z,687.00
2023-03-06T03:30:31.908Z,675.00
2023-03-06T03:31:31.975Z,662.00
2023-03-06T03:32:31.955Z,691.00
2023-03-06T03:33:31.937Z,665.00
2023-03-06T03:34:31.922Z,682.00
2023-03-06T03:35:31.985Z,672.00
2023-03-06T03:36:31.949Z,678.00
2023-03-06T03:37:31.976Z,661.00
2023-03-06T03:38:32.011Z,651.00
2023-03-06T03:39:32.033Z,645.00
2023-03-06T03:40:31.999Z,641.00
2023-03-06T03:41:32.034Z,636.00
2023-03-06T03:42:32.045Z,627.00
2023-03-06T03:43:32.064Z,641.00
2023-03-06T03:44:32.040Z,656.00
2023-03-06T03:45:32.077Z,665.00
2023-03-06T03:46:32.168Z,673.00
2023-03-06T03:47:32.086Z,676.00
2023-03-06T03:48:32.089Z,672.00
2023-03-06T03:49:32.127Z,683.00
2023-03-06T03:50:32.093Z,669.00
2023-03-06T03:51:32.095Z,672.00
2023-03-06T03:52:32.126Z,663.00
2023-03-06T03:53:32.122Z,672.00
2023-03-06T03:54:32.069Z,702.00
2023-03-06T03:55:32.089Z,732.00
2023-03-06T03:56:32.080Z,766.00
2023-03-06T03:57:32.083Z,747.00
2023-03-06T03:58:32.080Z,685.00
2023-03-06T03:59:32.076Z,705.00
2023-03-06T04:00:32.076Z,650.00
2023-03-06T04:01:32.080Z,643.00
2023-03-06T04:02:32.052Z,637.00
2023-03-06T04:03:32.044Z,613.00
2023-03-06T04:04:32.131Z,628.00
2023-03-06T04:05:32.048Z,623.00
2023-03-06T04:06:32.045Z,621.00
2023-03-06T04:07:32.035Z,623.00
2023-03-06T04:08:32.069Z,619.00
2023-03-06T04:09:32.077Z,614.00
2023-03-06T04:10:32.081Z,613.00
2023-03-06T04:11:32.126Z,592.00
2023-03-06T04:12:32.059Z,597.00
2023-03-06T04:13:32.062Z,595.00
2023-03-06T04:14:32.069Z,592.00
2023-03-06T04:15:32.083Z,593.00
2023-03-06T04:16:32.095Z,584.00
2023-03-06T04:17:32.087Z,587.00
2023-03-06T04:18:32.101Z,586.00
2023-03-06T04:19:32.107Z,590.00
2023-03-06T04:20:32.112Z,594.00
2023-03-06T04:21:32.081Z,603.00
2023-03-06T04:22:32.132Z,620.00
2023-03-06T04:23:32.141Z,629.00
2023-03-06T04:24:32.117Z,648.00
2023-03-06T04:25:32.161Z,676.00
2023-03-06T04:26:32.223Z,701.00
2023-03-06T04:27:32.107Z,698.00
2023-03-06T04:28:32.109Z,658.00
2023-03-06T04:29:32.200Z,637.00
2023-03-06T04:30:32.075Z,640.00
2023-03-06T04:31:32.142Z,642.00
2023-03-06T04:32:32.118Z,616.00
2023-03-06T04:33:32.098Z,617.00
2023-03-06T04:34:32.127Z,599.00
2023-03-06T04:35:32.151Z,613.00
2023-03-06T04:36:32.091Z,613.00
2023-03-06T04:37:32.090Z,624.00
2023-03-06T04:38:32.117Z,632.00
2023-03-06T04:39:32.083Z,647.00
2023-03-06T04:40:32.112Z,650.00
2023-03-06T04:41:32.132Z,650.00
2023-03-06T04:42:32.106Z,631.00
2023-03-06T04:43:32.133Z,636.00
2023-03-06T04:44:32.096Z,611.00
2023-03-06T04:45:32.135Z,610.00
2023-03-06T04:46:32.136Z,599.00
2023-03-06T04:47:32.146Z,609.00
2023-03-06T04:48:32.138Z,601.00
2023-03-06T04:49:32.141Z,619.00
2023-03-06T04:50:32.112Z,624.00
2023-03-06T04:51:32.123Z,631.00
2023-03-06T04:52:32.122Z,638.00
2023-03-06T04:53:32.140Z,652.00
2023-03-06T04:54:32.155Z,662.00
2023-03-06T04:55:32.133Z,656.00
2023-03-06T04:56:32.118Z,647.00
2023-03-06T04:57:32.137Z,608.00
2023-03-06T04:58:32.166Z,624.00
2023-03-06T05:00:32.158Z,628.00
2023-03-06T05:01:32.179Z,620.00
2023-03-06T05:02:32.219Z,628.00
2023-03-06T05:03:32.188Z,635.00
2023-03-06T05:04:32.201Z,635.00
2023-03-06T05:05:32.212Z,646.00
2023-03-06T05:08:32.199Z,658.00
2023-03-06T05:09:32.214Z,680.00
2023-03-06T05:10:32.226Z,681.00
2023-03-06T05:11:32.229Z,658.00
2023-03-06T05:12:32.233Z,679.00
2023-03-06T05:14:32.243Z,688.00
2023-03-06T05:15:32.238Z,684.00
2023-03-06T05:16:32.237Z,661.00
2023-03-06T05:17:32.230Z,667.00
2023-03-06T05:18:32.208Z,664.00
2023-03-06T05:19:32.200Z,654.00
2023-03-06T05:20:32.222Z,644.00
2023-03-06T05:21:32.253Z,635.00
2023-03-06T05:22:32.268Z,618.00
2023-03-06T05:23:32.230Z,597.00
2023-03-06T05:24:32.281Z,592.00
2023-03-06T05:25:32.306Z,595.00
2023-03-06T05:26:32.293Z,584.00
2023-03-06T05:27:32.332Z,603.00
2023-03-06T05:28:32.375Z,604.00
2023-03-06T05:29:32.384Z,611.00
2023-03-06T05:30:32.579Z,624.00
2023-03-06T05:31:32.488Z,637.00
2023-03-06T05:32:35.378Z,639.00
2023-03-06T05:33:32.546Z,637.00
2023-03-06T05:34:32.506Z,637.00
2023-03-06T05:35:32.548Z,643.00
2023-03-06T05:36:32.470Z,636.00
2023-03-06T05:37:32.514Z,640.00
2023-03-06T05:38:32.488Z,647.00
2023-03-06T05:39:32.457Z,655.00
2023-03-06T05:40:32.467Z,656.00
2023-03-06T05:41:32.436Z,661.00
2023-03-06T05:42:32.446Z,666.00
2023-03-06T05:43:32.418Z,677.00
2023-03-06T05:44:32.422Z,680.00
2023-03-06T05:45:32.454Z,706.00
2023-03-06T05:46:32.357Z,734.00
2023-03-06T05:47:32.375Z,762.00
2023-03-06T05:48:32.344Z,770.00
2023-03-06T05:49:32.304Z,781.00
2023-03-06T05:50:32.321Z,798.00
2023-03-06T05:51:32.312Z,816.00
2023-03-06T05:52:32.308Z,822.00
2023-03-06T05:54:32.256Z,865.00
2023-03-06T05:55:32.261Z,866.00
2023-03-06T05:56:32.227Z,866.00
2023-03-06T05:57:32.197Z,869.00
2023-03-06T05:58:32.192Z,870.00
2023-03-06T05:59:32.186Z,891.00
2023-03-06T06:00:32.155Z,912.00
2023-03-06T06:01:39.145Z,924.00
2023-03-06T06:02:32.157Z,926.00
2023-03-06T06:03:32.179Z,932.00
2023-03-06T06:04:32.126Z,937.00
2023-03-06T06:05:32.128Z,943.00
2023-03-06T06:06:32.083Z,902.00
2023-03-06T06:07:32.072Z,898.00
2023-03-06T06:08:32.087Z,887.00
2023-03-06T06:09:32.150Z,893.00
2023-03-06T06:10:33.066Z,895.00
2023-03-06T06:11:32.012Z,899.00
2023-03-06T06:12:32.085Z,908.00
2023-03-06T06:13:32.068Z,921.00
2023-03-06T06:14:31.952Z,949.00
2023-03-06T06:15:32.022Z,955.00
2023-03-06T06:16:31.981Z,972.00
2023-03-06T06:17:31.978Z,980.00
2023-03-06T06:18:31.886Z,958.00
2023-03-06T06:19:31.842Z,964.00
2023-03-06T06:20:31.872Z,978.00
2023-03-06T06:21:31.806Z,982.00
2023-03-06T06:22:31.778Z,990.00
2023-03-06T06:23:31.761Z,1018.00
2023-03-06T06:24:31.726Z,1020.00
2023-03-06T06:25:31.751Z,1033.00
2023-03-06T06:26:31.784Z,1041.00
2023-03-06T06:27:31.777Z,1053.00
2023-03-06T06:28:31.780Z,1062.00
2023-03-06T06:29:31.802Z,1106.00
2023-03-06T06:30:31.810Z,1098.00
2023-03-06T06:31:31.877Z,1103.00
2023-03-06T06:32:31.866Z,1221.00
2023-03-06T06:33:31.832Z,1432.00
2023-03-06T06:34:31.794Z,1365.00
2023-03-06T06:35:31.847Z,1336.00
2023-03-06T06:36:31.806Z,1290.00
2023-03-06T06:37:31.822Z,1256.00
2023-03-06T06:38:31.800Z,1245.00
2023-03-06T06:39:31.823Z,1268.00
2023-03-06T06:40:31.794Z,1274.00
2023-03-06T06:41:46.573Z,1272.00
2023-03-06T06:42:39.004Z,1275.00
2023-03-06T06:43:32.718Z,1277.00
2023-03-06T06:44:31.728Z,1298.00
2023-03-06T06:45:31.706Z,1332.00
2023-03-06T06:47:20.888Z,1361.00
2023-03-06T06:47:32.713Z,1279.00
2023-03-06T06:48:31.640Z,1308.00
2023-03-06T06:49:31.614Z,1359.00
2023-03-06T06:50:31.603Z,1447.00
2023-03-06T06:51:31.563Z,1516.00
2023-03-06T06:52:31.549Z,1550.00
2023-03-06T06:53:31.508Z,1478.00
2023-03-06T06:54:31.443Z,1552.00
2023-03-06T06:55:31.427Z,1333.00
2023-03-06T06:56:31.382Z,1274.00
2023-03-06T06:57:31.364Z,1429.00
2023-03-06T06:58:31.322Z,1481.00
2023-03-06T06:59:32.105Z,1532.00
2023-03-06T07:00:31.265Z,1244.00
2023-03-06T07:01:31.303Z,1265.00
2023-03-06T07:02:31.202Z,1187.00
2023-03-06T07:03:31.192Z,1347.00
2023-03-06T07:04:31.134Z,1462.00
2023-03-06T07:05:31.138Z,1496.00
2023-03-06T07:06:31.135Z,1471.00
2023-03-06T07:07:31.071Z,1517.00
2023-03-06T07:08:31.026Z,1524.00
2023-03-06T07:09:31.030Z,1518.00
2023-03-06T07:10:30.954Z,1577.00
2023-03-06T07:11:31.150Z,1617.00
2023-03-06T07:12:30.906Z,1648.00
2023-03-06T07:13:30.879Z,1645.00
2023-03-06T07:14:30.836Z,1708.00
2023-03-06T07:15:30.768Z,1731.00
2023-03-06T07:16:30.747Z,1754.00
2023-03-06T07:17:30.724Z,1752.00
2023-03-06T07:18:30.683Z,1795.00
2023-03-06T07:19:30.623Z,1826.00
2023-03-06T07:20:30.613Z,1849.00
2023-03-06T07:21:30.617Z,1871.00
2023-03-06T07:22:38.727Z,1894.00
2023-03-06T07:23:31.501Z,1896.00
2023-03-06T07:24:30.506Z,1907.00
2023-03-06T07:25:30.476Z,1927.00
2023-03-06T07:26:32.088Z,1966.00
2023-03-06T07:27:30.424Z,2041.00
2023-03-06T07:28:33.694Z,2049.00
2023-03-06T07:29:31.296Z,2051.00
2023-03-06T07:30:30.264Z,2060.00
2023-03-06T07:31:30.298Z,2076.00
2023-03-06T07:32:30.262Z,2117.00
2023-03-06T07:33:30.114Z,2176.00
2023-03-06T07:34:30.075Z,2178.00
2023-03-06T07:35:30.108Z,2204.00
2023-03-06T07:36:30.019Z,2207.00
2023-03-06T07:37:30.039Z,2228.00
2023-03-06T07:38:29.955Z,2226.00
2023-03-06T07:39:30.070Z,2234.00
2023-03-06T07:40:29.857Z,2202.00
2023-03-06T07:41:30.241Z,2221.00
2023-03-06T07:42:29.787Z,2215.00
2023-03-06T07:43:29.766Z,2190.00
2023-03-06T07:44:29.709Z,2177.00
2023-03-06T07:45:29.621Z,2168.00
2023-03-06T07:46:29.655Z,2139.00
2023-03-06T07:47:29.702Z,2098.00
2023-03-06T07:48:29.543Z,2099.00
2023-03-06T07:49:29.559Z,2121.00
2023-03-06T07:50:30.159Z,2142.00
2023-03-06T07:51:29.423Z,2168.00
2023-03-06T07:52:29.690Z,2199.00
2023-03-06T07:53:29.430Z,2166.00
2023-03-06T07:54:29.367Z,2198.00
2023-03-06T07:55:29.335Z,2187.00
2023-03-06T07:56:29.392Z,2156.00
2023-03-06T07:57:29.674Z,2178.00
2023-03-06T07:58:29.326Z,2174.00
2023-03-06T07:59:29.271Z,2165.00
2023-03-06T08:00:29.239Z,2168.00
2023-03-06T08:01:29.253Z,2179.00
2023-03-06T08:02:29.186Z,2145.00
2023-03-06T08:03:29.207Z,2169.00
2023-03-06T08:04:30.233Z,2155.00
2023-03-06T08:05:29.121Z,2155.00
2023-03-06T08:06:29.124Z,2170.00
2023-03-06T08:07:29.199Z,2166.00
2023-03-06T08:08:29.029Z,2167.00
2023-03-06T08:09:29.024Z,2136.00
2023-03-06T08:10:28.963Z,2122.00
2023-03-06T08:11:28.920Z,2158.00
2023-03-06T08:12:29.238Z,2159.00
2023-03-06T08:13:28.831Z,2135.00
2023-03-06T08:14:28.811Z,2174.00
2023-03-06T08:15:28.758Z,2162.00
2023-03-06T08:16:28.726Z,2173.00
2023-03-06T08:17:28.668Z,2130.00
2023-03-06T08:18:28.657Z,2127.00
2023-03-06T08:19:28.563Z,2088.00
2023-03-06T08:20:28.491Z,2087.00
2023-03-06T08:21:29.045Z,2113.00
2023-03-06T08:22:29.405Z,2128.00
2023-03-06T08:23:28.380Z,2143.00
2023-03-06T08:24:28.354Z,2129.00
2023-03-06T08:25:28.338Z,2126.00
2023-03-06T08:26:28.368Z,2115.00
2023-03-06T08:27:29.215Z,2116.00
2023-03-06T08:28:28.248Z,2116.00
2023-03-06T08:29:28.114Z,2103.00
2023-03-06T08:30:28.086Z,2119.00
2023-03-06T08:31:28.076Z,2021.00
2023-03-06T08:32:28.276Z,2006.00
2023-03-06T08:33:27.967Z,2007.00
2023-03-06T08:34:27.937Z,1951.00
2023-03-06T08:35:27.983Z,1944.00
2023-03-06T08:37:28.231Z,1919.00
2023-03-06T08:38:27.733Z,2007.00
2023-03-06T08:39:27.718Z,2035.00
2023-03-06T08:40:27.706Z,2039.00
2023-03-06T08:41:27.694Z,2045.00
2023-03-06T08:42:27.718Z,2039.00
2023-03-06T08:43:27.590Z,1996.00
2023-03-06T08:44:27.570Z,1641.00
2023-03-06T08:45:27.556Z,1574.00
2023-03-06T08:46:27.616Z,1585.00
2023-03-06T08:47:27.736Z,1613.00
2023-03-06T08:48:27.552Z,1776.00
2023-03-06T08:49:27.548Z,1748.00
2023-03-06T08:50:27.585Z,1684.00
2023-03-06T08:51:27.584Z,1666.00
2023-03-06T08:52:27.610Z,1601.00
2023-03-06T08:53:41.630Z,1608.00
2023-03-06T08:54:28.549Z,1610.00
2023-03-06T09:01:28.269Z,1494.00
2023-03-06T09:03:27.216Z,1476.00
2023-03-06T09:04:27.200Z,1474.00
2023-03-06T09:05:27.175Z,1481.00
2023-03-06T09:06:27.121Z,1506.00
2023-03-06T09:07:27.051Z,1446.00
2023-03-06T09:08:27.052Z,1458.00
2023-03-06T09:09:27.001Z,1456.00
2023-03-06T09:10:27.044Z,1472.00
2023-03-06T09:11:26.957Z,1443.00
2023-03-06T09:12:28.083Z,1471.00
2023-03-06T09:13:26.910Z,1480.00
2023-03-06T09:14:26.895Z,1478.00
2023-03-06T09:15:26.851Z,1502.00
2023-03-06T09:16:26.835Z,1535.00
2023-03-06T09:17:26.742Z,1558.00
2023-03-06T09:18:26.702Z,1558.00
2023-03-06T09:19:26.705Z,1581.00
2023-03-06T09:20:26.645Z,1599.00
2023-03-06T09:21:26.608Z,1605.00
2023-03-06T09:22:26.548Z,1638.00
2023-03-06T09:23:26.744Z,1640.00
2023-03-06T09:24:26.479Z,1675.00
2023-03-06T09:25:26.503Z,1707.00
2023-03-06T09:26:39.531Z,1741.00
2023-03-06T09:27:27.428Z,1743.00
2023-03-06T09:28:26.400Z,1746.00
2023-03-06T09:35:26.131Z,1820.00
2023-03-06T09:36:26.037Z,1794.00
2023-03-06T09:37:25.982Z,1765.00
2023-03-06T09:38:25.964Z,1645.00
2023-03-06T09:39:26.017Z,1714.00
2023-03-06T09:40:25.871Z,1705.00
2023-03-06T09:41:25.862Z,1688.00
2023-03-06T09:42:25.846Z,1663.00
2023-03-06T09:43:25.801Z,1668.00
2023-03-06T09:44:25.874Z,1660.00
2023-03-06T09:45:25.809Z,1634.00
2023-03-06T09:46:25.796Z,1612.00
2023-03-06T09:47:25.783Z,1593.00
2023-03-06T09:48:25.699Z,1536.00
2023-03-06T09:49:25.712Z,1498.00
2023-03-06T09:50:25.686Z,1361.00
2023-03-06T09:51:25.698Z,1207.00
2023-03-06T09:52:25.701Z,1128.00
2023-03-06T09:53:25.705Z,1097.00
2023-03-06T09:54:25.808Z,974.00
2023-03-06T09:55:25.771Z,960.00
2023-03-06T09:56:25.787Z,936.00
2023-03-06T09:57:25.838Z,591.00
2023-03-06T09:58:25.848Z,438.00
2023-03-06T09:59:25.868Z,410.00
2023-03-06T10:00:25.866Z,470.00
2023-03-06T10:01:25.833Z,502.00
2023-03-06T10:02:25.964Z,515.00
2023-03-06T10:03:25.876Z,670.00
2023-03-06T10:04:25.813Z,647.00
2023-03-06T10:05:25.794Z,885.00
2023-03-06T10:06:25.790Z,993.00
2023-03-06T10:07:25.846Z,1105.00
2023-03-06T10:08:25.927Z,1264.00
2023-03-06T10:09:25.879Z,1366.00
2023-03-06T10:10:25.932Z,1394.00
2023-03-06T10:11:25.936Z,1427.00
2023-03-06T10:12:25.956Z,1458.00
2023-03-06T10:13:25.979Z,1486.00
2023-03-06T10:14:25.985Z,1430.00
2023-03-06T10:15:26.074Z,1441.00
2023-03-06T10:16:26.016Z,1509.00
2023-03-06T10:17:26.033Z,1530.00
2023-03-06T10:18:26.817Z,1490.00
2023-03-06T10:19:25.996Z,1508.00
2023-03-06T10:20:25.998Z,1548.00
2023-03-06T10:21:26.065Z,1572.00
2023-03-06T10:22:25.943Z,1540.00
2023-03-06T10:23:25.970Z,1564.00
2023-03-06T10:24:25.919Z,1605.00
2023-03-06T10:25:25.878Z,1627.00
2023-03-06T10:26:25.884Z,1616.00
2023-03-06T10:27:25.811Z,1664.00
2023-03-06T10:28:25.781Z,1690.00
2023-03-06T10:29:25.794Z,1692.00
2023-03-06T10:30:26.491Z,1696.00
2023-03-06T10:32:25.827Z,1750.00
2023-03-06T10:33:25.780Z,1794.00
2023-03-06T10:34:25.791Z,1787.00
2023-03-06T10:35:25.851Z,1821.00
2023-03-06T10:47:26.706Z,1810.00
2023-03-06T10:48:25.879Z,1317.00
2023-03-06T10:49:26.328Z,737.00
2023-03-06T10:50:25.860Z,491.00
2023-03-06T10:51:25.861Z,400.00
2023-03-06T10:52:25.829Z,400.00
2023-03-06T10:53:25.819Z,400.00
2023-03-06T10:54:26.278Z,400.00
2023-03-06T10:55:25.824Z,400.00
2023-03-06T10:56:25.880Z,400.00
2023-03-06T10:57:25.970Z,400.00
2023-03-06T10:58:25.956Z,517.00
2023-03-06T10:59:25.989Z,541.00
2023-03-06T11:00:26.014Z,666.00
2023-03-06T11:01:26.027Z,790.00
2023-03-06T11:02:26.090Z,939.00
2023-03-06T11:03:26.097Z,1214.00
2023-03-06T11:04:26.134Z,1433.00
2023-03-06T11:05:26.147Z,1596.00
2023-03-06T11:06:26.156Z,1700.00
2023-03-06T11:07:26.197Z,1807.00
2023-03-06T11:08:26.173Z,1827.00
2023-03-06T11:09:26.218Z,1906.00
2023-03-06T11:10:26.192Z,1991.00
2023-03-06T11:14:27.694Z,2087.00
2023-03-06T11:15:26.110Z,2139.00
2023-03-06T11:16:26.169Z,2126.00
2023-03-06T11:17:26.091Z,2169.00
2023-03-06T11:18:26.144Z,2202.00
2023-03-06T11:19:26.032Z,2226.00
2023-03-06T11:20:26.037Z,2242.00
2023-03-06T11:21:25.937Z,2273.00
2023-03-06T11:22:25.951Z,1506.00
2023-03-06T11:23:25.916Z,826.00
2023-03-06T11:24:25.928Z,579.00
2023-03-06T11:25:25.865Z,400.00
2023-03-06T11:26:25.879Z,416.00
2023-03-06T11:27:25.890Z,467.00
2023-03-06T11:28:28.817Z,570.00
2023-03-06T11:29:25.966Z,753.00
2023-03-06T11:30:25.845Z,1109.00
2023-03-06T11:31:25.891Z,1388.00
2023-03-06T11:32:25.925Z,1622.00
2023-03-06T11:33:25.790Z,1859.00
2023-03-06T11:34:25.814Z,1996.00
2023-03-06T11:35:25.762Z,2168.00
2023-03-06T11:36:25.631Z,2279.00
2023-03-06T11:37:25.555Z,2353.00
2023-03-06T11:38:25.529Z,2399.00
2023-03-06T11:39:25.843Z,2399.00
2023-03-06T11:40:25.459Z,2494.00
2023-03-06T11:41:25.434Z,2638.00
2023-03-06T11:42:25.449Z,2692.00
2023-03-06T11:43:25.358Z,2714.00
2023-03-06T11:44:25.804Z,2747.00
2023-03-06T11:45:25.272Z,2813.00
2023-03-06T11:46:25.376Z,2827.00
2023-03-06T11:47:25.234Z,2884.00
2023-03-06T11:48:25.164Z,2839.00
2023-03-06T11:49:25.313Z,2676.00
2023-03-06T11:50:25.094Z,2645.00
2023-03-06T11:51:24.996Z,2671.00
2023-03-06T11:52:24.946Z,2737.00
2023-03-06T11:53:24.931Z,2815.00
2023-03-06T11:54:24.866Z,2847.00
2023-03-06T11:55:24.854Z,2886.00
2023-03-06T11:56:24.817Z,2931.00
2023-03-06T11:57:24.751Z,2926.00
2023-03-06T11:58:24.691Z,2969.00
2023-03-06T11:59:24.693Z,2968.00
2023-03-06T12:00:24.860Z,2516.00
2023-03-06T12:01:24.636Z,1098.00
2023-03-06T12:02:24.712Z,672.00
2023-03-06T12:03:24.525Z,647.00
2023-03-06T12:04:24.482Z,708.00
2023-03-06T12:05:24.554Z,703.00
2023-03-06T12:06:24.442Z,952.00
2023-03-06T12:07:24.413Z,1360.00
2023-03-06T12:08:24.373Z,1734.00
2023-03-06T12:09:24.351Z,2165.00
2023-03-06T12:10:24.808Z,2419.00
2023-03-06T12:11:24.322Z,2535.00
2023-03-06T12:12:24.255Z,2549.00
2023-03-06T12:14:24.156Z,2549.00
2023-03-06T12:15:24.327Z,2547.00
2023-03-06T12:16:24.169Z,2589.00
2023-03-06T12:17:24.074Z,2623.00
2023-03-06T12:18:24.110Z,2642.00
2023-03-06T12:19:23.980Z,2619.00
2023-03-06T12:20:24.321Z,2653.00
2023-03-06T12:21:23.914Z,2695.00
2023-03-06T12:22:23.861Z,2740.00
2023-03-06T12:23:23.914Z,2770.00
2023-03-06T12:24:23.766Z,2777.00
2023-03-06T12:25:23.830Z,2726.00
2023-03-06T12:26:23.729Z,2746.00
2023-03-06T12:27:23.645Z,2728.00
2023-03-06T12:28:23.616Z,2798.00
2023-03-06T12:29:23.558Z,2715.00
2023-03-06T12:30:23.827Z,2664.00
2023-03-06T12:31:23.547Z,2632.00
2023-03-06T12:32:23.482Z,2740.00
2023-03-06T12:34:23.401Z,2605.00
2023-03-06T12:35:23.848Z,2714.00
2023-03-06T12:36:23.415Z,2753.00
2023-03-06T12:37:23.419Z,2668.00
2023-03-06T12:38:23.464Z,2665.00
2023-03-06T12:39:23.429Z,2597.00
2023-03-06T12:40:23.818Z,2520.00
2023-03-06T12:41:23.428Z,2429.00
2023-03-06T12:42:23.922Z,2423.00
2023-03-06T12:43:23.395Z,2446.00
2023-03-06T12:44:23.357Z,2501.00
2023-03-06T12:45:23.316Z,2473.00
2023-03-06T12:46:23.373Z,2502.00
2023-03-06T12:47:23.265Z,2523.00
2023-03-06T12:48:23.273Z,2544.00
2023-03-06T12:49:31.516Z,2514.00
2023-03-06T12:50:24.216Z,2422.00
2023-03-06T12:51:23.154Z,2410.00
2023-03-06T12:52:29.549Z,2429.00
2023-03-06T12:53:24.088Z,2404.00
2023-03-06T12:54:23.031Z,2347.00
2023-03-06T12:55:25.722Z,2325.00
2023-03-06T12:56:22.963Z,2282.00
2023-03-06T12:57:22.926Z,2252.00
2023-03-06T12:58:22.898Z,2300.00
2023-03-06T12:59:22.857Z,2293.00
2023-03-06T13:00:22.839Z,2214.00
2023-03-06T13:01:22.785Z,2186.00
2023-03-06T13:02:22.762Z,2205.00
2023-03-06T13:03:22.726Z,2260.00
2023-03-06T13:04:22.680Z,2056.00
2023-03-06T13:05:22.670Z,1954.00
2023-03-06T13:06:22.621Z,1953.00
2023-03-06T13:07:22.585Z,2061.00
2023-03-06T13:08:22.535Z,2053.00
2023-03-06T13:09:22.485Z,2139.00
2023-03-06T13:10:22.465Z,2180.00
2023-03-06T13:11:22.432Z,2176.00
2023-03-06T13:12:22.399Z,2121.00
2023-03-06T13:13:22.365Z,2103.00
2023-03-06T13:14:22.317Z,1964.00
2023-03-06T13:15:22.271Z,2078.00
2023-03-06T13:16:22.263Z,2068.00
2023-03-06T13:32:21.723Z,2187.00
2023-03-06T13:44:21.216Z,1601.00
2023-03-06T13:45:21.201Z,1282.00
2023-03-06T13:46:21.195Z,1160.00
2023-03-06T13:47:21.175Z,1018.00
2023-03-06T13:48:41.512Z,879.00
2023-03-06T13:49:22.106Z,823.00
2023-03-06T13:50:21.093Z,800.00
2023-03-06T13:51:21.037Z,842.00
2023-03-06T13:52:21.016Z,917.00
2023-03-06T13:53:20.922Z,900.00
2023-03-06T13:54:20.967Z,1228.00
2023-03-06T13:55:20.911Z,1522.00
2023-03-06T13:56:20.855Z,2111.00
2023-03-06T13:57:20.836Z,1999.00
2023-03-06T13:58:20.783Z,2104.00
2023-03-06T13:59:20.785Z,2007.00
2023-03-06T14:00:20.747Z,1825.00
2023-03-06T14:01:20.746Z,1841.00
2023-03-06T14:02:20.731Z,1829.00
2023-03-06T14:03:20.660Z,1864.00
2023-03-06T14:04:20.587Z,1772.00
2023-03-06T14:05:20.712Z,2000.00
2023-03-06T14:06:20.577Z,2014.00
2023-03-06T14:07:20.557Z,1978.00
2023-03-06T14:08:20.500Z,1912.00
2023-03-06T14:09:20.494Z,1934.00
2023-03-06T14:10:20.513Z,1816.00
2023-03-06T14:11:20.515Z,1831.00
2023-03-06T14:12:20.509Z,1976.00
2023-03-06T14:13:20.497Z,1935.00
2023-03-06T14:14:20.551Z,1845.00